sensor_id;sensor_type;location;lat;lon;timestamp;temperature;humidity
12130;DHT22;6128;59.340;18.040;2022-12-10T00:02:25;-3.30;99.90
12130;DHT22;6128;59.340;18.040;2022-12-10T00:04:53;-3.30;99.90
12130;DHT22;6128;59.340;18.040;2022-12-10T00:07:20;-3.30;99.90
12130;DHT22;6128;59.340;18.040;2022-12-10T00:09:49;-3.30;99.90
12130;DHT22;6128;59.340;18.040;2022-12-10T00:12:16;-3.30;99.90
12130;DHT22;6128;59.340;18.040;2022-12-10T00:14:43;-3.30;99.90
12130;DHT22;6128;59.340;18.040;2022-12-10T00:17:10;-3.30;99.90
12130;DHT22;6128;59.340;18.040;2022-12-10T00:19:38;-3.30;99.90
12130;DHT22;6128;59.340;18.040;2022-12-10T00:22:05;-3.30;99.90
12130;DHT22;6128;59.340;18.040;2022-12-10T00:24:32;-3.30;99.90
12130;DHT22;6128;59.340;18.040;2022-12-10T00:27:01;-3.30;99.90
12130;DHT22;6128;59.340;18.040;2022-12-10T00:29:28;-3.20;99.90
12130;DHT22;6128;59.340;18.040;2022-12-10T00:31:55;-3.20;99.90
12130;DHT22;6128;59.340;18.040;2022-12-10T00:34:23;-3.20;99.90
12130;DHT22;6128;59.340;18.040;2022-12-10T00:36:50;-3.20;99.90
12130;DHT22;6128;59.340;18.040;2022-12-10T00:39:19;-3.10;99.90
12130;DHT22;6128;59.340;18.040;2022-12-10T00:41:47;-3.20;99.90
12130;DHT22;6128;59.340;18.040;2022-12-10T00:44:16;-3.20;99.90
12130;DHT22;6128;59.340;18.040;2022-12-10T00:46:43;-3.20;99.90
12130;DHT22;6128;59.340;18.040;2022-12-10T00:49:11;-3.10;99.90
12130;DHT22;6128;59.340;18.040;2022-12-10T00:51:38;-3.10;99.90
12130;DHT22;6128;59.340;18.040;2022-12-10T00:54:05;-3.10;99.90
12130;DHT22;6128;59.340;18.040;2022-12-10T00:56:33;-3.10;99.90
12130;DHT22;6128;59.340;18.040;2022-12-10T00:59:01;-3.10;99.90
12130;DHT22;6128;59.340;18.040;2022-12-10T01:01:31;-3.10;99.90
12130;DHT22;6128;59.340;18.040;2022-12-10T01:04:00;-3.10;99.90
12130;DHT22;6128;59.340;18.040;2022-12-10T01:06:30;-3.10;99.90
12130;DHT22;6128;59.340;18.040;2022-12-10T01:08:58;-3.00;99.90
12130;DHT22;6128;59.340;18.040;2022-12-10T01:11:29;-3.00;99.90
12130;DHT22;6128;59.340;18.040;2022-12-10T01:13:56;-3.00;99.90
12130;DHT22;6128;59.340;18.040;2022-12-10T01:16:24;-3.00;99.90
12130;DHT22;6128;59.340;18.040;2022-12-10T01:18:55;-3.00;99.90
12130;DHT22;6128;59.340;18.040;2022-12-10T01:21:23;-2.90;99.90
12130;DHT22;6128;59.340;18.040;2022-12-10T01:23:51;-2.90;99.90
12130;DHT22;6128;59.340;18.040;2022-12-10T01:26:21;-2.80;99.90
12130;DHT22;6128;59.340;18.040;2022-12-10T01:28:49;-2.80;99.90
12130;DHT22;6128;59.340;18.040;2022-12-10T01:31:20;-2.80;99.90
12130;DHT22;6128;59.340;18.040;2022-12-10T01:33:48;-2.70;99.90
12130;DHT22;6128;59.340;18.040;2022-12-10T01:36:18;-2.70;99.90
12130;DHT22;6128;59.340;18.040;2022-12-10T01:38:46;-2.70;99.90
12130;DHT22;6128;59.340;18.040;2022-12-10T01:41:15;-2.70;99.90
12130;DHT22;6128;59.340;18.040;2022-12-10T01:43:54;-2.70;99.90
12130;DHT22;6128;59.340;18.040;2022-12-10T01:46:23;-2.70;99.90
12130;DHT22;6128;59.340;18.040;2022-12-10T01:48:51;-2.60;99.90
12130;DHT22;6128;59.340;18.040;2022-12-10T01:51:20;-2.60;99.90
12130;DHT22;6128;59.340;18.040;2022-12-10T01:53:48;-2.60;99.90
12130;DHT22;6128;59.340;18.040;2022-12-10T01:56:16;-2.60;99.90
12130;DHT22;6128;59.340;18.040;2022-12-10T01:58:45;-2.60;99.90
12130;DHT22;6128;59.340;18.040;2022-12-10T02:01:16;-2.60;99.90
12130;DHT22;6128;59.340;18.040;2022-12-10T02:03:56;-2.60;99.90
12130;DHT22;6128;59.340;18.040;2022-12-10T02:06:34;-2.50;99.90
12130;DHT22;6128;59.340;18.040;2022-12-10T02:09:09;-2.50;99.90
12130;DHT22;6128;59.340;18.040;2022-12-10T02:11:42;-2.50;99.90
12130;DHT22;6128;59.340;18.040;2022-12-10T02:14:17;-2.50;99.90
12130;DHT22;6128;59.340;18.040;2022-12-10T02:16:48;-2.50;99.90
12130;DHT22;6128;59.340;18.040;2022-12-10T02:19:22;-2.50;99.90
12130;DHT22;6128;59.340;18.040;2022-12-10T02:22:04;-2.50;99.90
12130;DHT22;6128;59.340;18.040;2022-12-10T02:24:36;-2.50;99.90
12130;DHT22;6128;59.340;18.040;2022-12-10T02:27:10;-2.40;99.90
12130;DHT22;6128;59.340;18.040;2022-12-10T02:29:41;-2.40;99.90
12130;DHT22;6128;59.340;18.040;2022-12-10T02:32:13;-2.40;99.90
12130;DHT22;6128;59.340;18.040;2022-12-10T02:34:43;-2.40;99.90
12130;DHT22;6128;59.340;18.040;2022-12-10T02:37:15;-2.40;99.90
12130;DHT22;6128;59.340;18.040;2022-12-10T02:39:47;-2.40;99.90
12130;DHT22;6128;59.340;18.040;2022-12-10T02:42:17;-2.40;99.90
12130;DHT22;6128;59.340;18.040;2022-12-10T02:44:48;-2.50;99.90
12130;DHT22;6128;59.340;18.040;2022-12-10T02:47:16;-2.50;99.90
12130;DHT22;6128;59.340;18.040;2022-12-10T02:49:47;-2.50;99.90
12130;DHT22;6128;59.340;18.040;2022-12-10T02:52:18;-2.40;99.90
12130;DHT22;6128;59.340;18.040;2022-12-10T02:54:47;-2.40;99.90
12130;DHT22;6128;59.340;18.040;2022-12-10T02:57:33;-2.40;99.90
12130;DHT22;6128;59.340;18.040;2022-12-10T03:00:08;-2.40;99.90
12130;DHT22;6128;59.340;18.040;2022-12-10T03:02:51;-2.40;99.90
12130;DHT22;6128;59.340;18.040;2022-12-10T03:05:23;-2.40;99.90
12130;DHT22;6128;59.340;18.040;2022-12-10T03:08:01;-2.40;99.90
12130;DHT22;6128;59.340;18.040;2022-12-10T03:10:34;-2.30;99.90
12130;DHT22;6128;59.340;18.040;2022-12-10T03:13:05;-2.30;99.90
12130;DHT22;6128;59.340;18.040;2022-12-10T03:15:38;-2.30;99.90
12130;DHT22;6128;59.340;18.040;2022-12-10T03:18:07;-2.30;99.90
12130;DHT22;6128;59.340;18.040;2022-12-10T03:20:38;-2.30;99.90
12130;DHT22;6128;59.340;18.040;2022-12-10T03:23:09;-2.30;99.90
12130;DHT22;6128;59.340;18.040;2022-12-10T03:25:38;-2.20;99.90
12130;DHT22;6128;59.340;18.040;2022-12-10T03:28:07;-2.20;99.90
12130;DHT22;6128;59.340;18.040;2022-12-10T03:30:37;-2.20;99.90
12130;DHT22;6128;59.340;18.040;2022-12-10T03:33:05;-2.20;99.90
12130;DHT22;6128;59.340;18.040;2022-12-10T03:35:33;-2.20;99.90
12130;DHT22;6128;59.340;18.040;2022-12-10T03:38:01;-2.10;99.90
12130;DHT22;6128;59.340;18.040;2022-12-10T03:40:28;-2.10;99.90
12130;DHT22;6128;59.340;18.040;2022-12-10T03:42:56;-2.10;99.90
12130;DHT22;6128;59.340;18.040;2022-12-10T03:45:23;-2.10;99.90
12130;DHT22;6128;59.340;18.040;2022-12-10T03:47:51;-2.10;99.90
12130;DHT22;6128;59.340;18.040;2022-12-10T03:50:18;-2.10;99.90
12130;DHT22;6128;59.340;18.040;2022-12-10T03:52:46;-2.10;99.90
12130;DHT22;6128;59.340;18.040;2022-12-10T03:55:13;-2.00;99.90
12130;DHT22;6128;59.340;18.040;2022-12-10T03:57:40;-2.00;99.90
12130;DHT22;6128;59.340;18.040;2022-12-10T04:00:09;-2.10;99.90
12130;DHT22;6128;59.340;18.040;2022-12-10T04:02:36;-2.10;99.90
12130;DHT22;6128;59.340;18.040;2022-12-10T04:05:05;-2.10;99.90
12130;DHT22;6128;59.340;18.040;2022-12-10T04:07:33;-2.10;99.90
12130;DHT22;6128;59.340;18.040;2022-12-10T04:10:00;-2.10;99.90
12130;DHT22;6128;59.340;18.040;2022-12-10T04:12:27;-2.00;99.90
12130;DHT22;6128;59.340;18.040;2022-12-10T04:14:54;-2.00;99.90
12130;DHT22;6128;59.340;18.040;2022-12-10T04:17:39;-2.00;99.90
12130;DHT22;6128;59.340;18.040;2022-12-10T04:20:08;-2.00;99.90
12130;DHT22;6128;59.340;18.040;2022-12-10T04:22:56;-2.00;99.90
12130;DHT22;6128;59.340;18.040;2022-12-10T04:25:41;-2.00;99.90
12130;DHT22;6128;59.340;18.040;2022-12-10T04:28:40;-2.00;99.90
12130;DHT22;6128;59.340;18.040;2022-12-10T04:31:07;-1.90;99.90
12130;DHT22;6128;59.340;18.040;2022-12-10T04:33:34;-1.90;99.90
12130;DHT22;6128;59.340;18.040;2022-12-10T04:36:03;-1.90;99.90
12130;DHT22;6128;59.340;18.040;2022-12-10T04:38:31;-1.90;99.90
12130;DHT22;6128;59.340;18.040;2022-12-10T04:40:58;-1.80;99.90
12130;DHT22;6128;59.340;18.040;2022-12-10T04:43:26;-1.80;99.90
12130;DHT22;6128;59.340;18.040;2022-12-10T04:45:55;-1.80;99.90
12130;DHT22;6128;59.340;18.040;2022-12-10T04:48:23;-1.80;99.90
12130;DHT22;6128;59.340;18.040;2022-12-10T04:50:50;-1.80;99.90
12130;DHT22;6128;59.340;18.040;2022-12-10T04:53:18;-1.80;99.90
12130;DHT22;6128;59.340;18.040;2022-12-10T04:55:45;-1.90;99.90
12130;DHT22;6128;59.340;18.040;2022-12-10T04:58:12;-1.90;99.90
12130;DHT22;6128;59.340;18.040;2022-12-10T05:00:40;-1.90;99.90
12130;DHT22;6128;59.340;18.040;2022-12-10T05:03:07;-2.00;99.90
12130;DHT22;6128;59.340;18.040;2022-12-10T05:05:34;-2.00;99.90
12130;DHT22;6128;59.340;18.040;2022-12-10T05:08:01;-2.00;99.90
12130;DHT22;6128;59.340;18.040;2022-12-10T05:10:34;-2.00;99.90
12130;DHT22;6128;59.340;18.040;2022-12-10T05:13:01;-2.00;99.90
12130;DHT22;6128;59.340;18.040;2022-12-10T05:15:28;-1.90;99.90
12130;DHT22;6128;59.340;18.040;2022-12-10T05:17:55;-1.90;99.90
12130;DHT22;6128;59.340;18.040;2022-12-10T05:20:22;-1.90;99.90
12130;DHT22;6128;59.340;18.040;2022-12-10T05:22:49;-2.00;99.90
12130;DHT22;6128;59.340;18.040;2022-12-10T05:25:35;-2.00;99.90
12130;DHT22;6128;59.340;18.040;2022-12-10T05:28:18;-2.00;99.90
12130;DHT22;6128;59.340;18.040;2022-12-10T05:30:45;-2.00;99.90
12130;DHT22;6128;59.340;18.040;2022-12-10T05:33:13;-1.90;99.90
12130;DHT22;6128;59.340;18.040;2022-12-10T05:35:40;-1.90;99.90
12130;DHT22;6128;59.340;18.040;2022-12-10T05:38:07;-1.90;99.90
12130;DHT22;6128;59.340;18.040;2022-12-10T05:40:37;-1.90;99.90
12130;DHT22;6128;59.340;18.040;2022-12-10T05:43:04;-1.90;99.90
12130;DHT22;6128;59.340;18.040;2022-12-10T05:45:32;-1.90;99.90
12130;DHT22;6128;59.340;18.040;2022-12-10T05:47:59;-1.80;99.90
12130;DHT22;6128;59.340;18.040;2022-12-10T05:50:27;-1.80;99.90
12130;DHT22;6128;59.340;18.040;2022-12-10T05:52:54;-1.90;99.90
12130;DHT22;6128;59.340;18.040;2022-12-10T05:55:21;-1.80;99.90
12130;DHT22;6128;59.340;18.040;2022-12-10T05:57:50;-1.80;99.90
12130;DHT22;6128;59.340;18.040;2022-12-10T06:00:17;-1.80;99.90
12130;DHT22;6128;59.340;18.040;2022-12-10T06:02:46;-1.90;99.90
12130;DHT22;6128;59.340;18.040;2022-12-10T06:05:13;-1.90;99.90
12130;DHT22;6128;59.340;18.040;2022-12-10T06:07:40;-1.90;99.90
12130;DHT22;6128;59.340;18.040;2022-12-10T06:10:08;-1.90;99.90
12130;DHT22;6128;59.340;18.040;2022-12-10T06:12:35;-1.90;99.90
12130;DHT22;6128;59.340;18.040;2022-12-10T06:15:05;-1.90;99.90
12130;DHT22;6128;59.340;18.040;2022-12-10T06:17:32;-1.90;99.90
12130;DHT22;6128;59.340;18.040;2022-12-10T06:19:59;-1.90;99.90
12130;DHT22;6128;59.340;18.040;2022-12-10T06:22:27;-1.90;99.90
12130;DHT22;6128;59.340;18.040;2022-12-10T06:24:54;-1.90;99.90
12130;DHT22;6128;59.340;18.040;2022-12-10T06:27:21;-1.90;99.90
12130;DHT22;6128;59.340;18.040;2022-12-10T06:29:48;-1.90;99.90
12130;DHT22;6128;59.340;18.040;2022-12-10T06:32:17;-1.90;99.90
12130;DHT22;6128;59.340;18.040;2022-12-10T06:34:44;-1.90;99.90
12130;DHT22;6128;59.340;18.040;2022-12-10T06:37:11;-1.90;99.90
12130;DHT22;6128;59.340;18.040;2022-12-10T06:39:38;-1.90;99.90
12130;DHT22;6128;59.340;18.040;2022-12-10T06:42:06;-1.90;99.90
12130;DHT22;6128;59.340;18.040;2022-12-10T06:44:34;-2.00;99.90
12130;DHT22;6128;59.340;18.040;2022-12-10T06:47:01;-2.00;99.90
12130;DHT22;6128;59.340;18.040;2022-12-10T06:49:30;-2.00;99.90
12130;DHT22;6128;59.340;18.040;2022-12-10T06:51:57;-2.00;99.90
12130;DHT22;6128;59.340;18.040;2022-12-10T06:54:24;-2.10;99.90
12130;DHT22;6128;59.340;18.040;2022-12-10T06:56:51;-2.00;99.90
12130;DHT22;6128;59.340;18.040;2022-12-10T06:59:19;-2.00;99.90
12130;DHT22;6128;59.340;18.040;2022-12-10T07:01:47;-2.00;99.90
12130;DHT22;6128;59.340;18.040;2022-12-10T07:04:14;-2.00;99.90
12130;DHT22;6128;59.340;18.040;2022-12-10T07:06:44;-2.00;99.90
12130;DHT22;6128;59.340;18.040;2022-12-10T07:09:11;-1.90;99.90
12130;DHT22;6128;59.340;18.040;2022-12-10T07:11:38;-1.90;99.90
12130;DHT22;6128;59.340;18.040;2022-12-10T07:14:06;-1.90;99.90
12130;DHT22;6128;59.340;18.040;2022-12-10T07:16:33;-1.90;99.90
12130;DHT22;6128;59.340;18.040;2022-12-10T07:19:02;-1.80;99.90
12130;DHT22;6128;59.340;18.040;2022-12-10T07:21:31;-1.90;99.90
12130;DHT22;6128;59.340;18.040;2022-12-10T07:24:04;-1.90;99.90
12130;DHT22;6128;59.340;18.040;2022-12-10T07:26:34;-1.90;99.90
12130;DHT22;6128;59.340;18.040;2022-12-10T07:29:02;-1.90;99.90
12130;DHT22;6128;59.340;18.040;2022-12-10T07:31:30;-1.90;99.90
12130;DHT22;6128;59.340;18.040;2022-12-10T07:33:58;-2.00;99.90
12130;DHT22;6128;59.340;18.040;2022-12-10T07:36:25;-2.00;99.90
12130;DHT22;6128;59.340;18.040;2022-12-10T07:38:54;-2.00;99.90
12130;DHT22;6128;59.340;18.040;2022-12-10T07:41:23;-2.00;99.90
12130;DHT22;6128;59.340;18.040;2022-12-10T07:43:53;-2.00;99.90
12130;DHT22;6128;59.340;18.040;2022-12-10T07:46:22;-2.00;99.90
12130;DHT22;6128;59.340;18.040;2022-12-10T07:48:54;-1.90;99.90
12130;DHT22;6128;59.340;18.040;2022-12-10T07:51:27;-1.90;99.90
12130;DHT22;6128;59.340;18.040;2022-12-10T07:53:55;-1.90;99.90
12130;DHT22;6128;59.340;18.040;2022-12-10T07:56:24;-1.90;99.90
12130;DHT22;6128;59.340;18.040;2022-12-10T07:58:52;-1.90;99.90
12130;DHT22;6128;59.340;18.040;2022-12-10T08:01:21;-1.80;99.90
12130;DHT22;6128;59.340;18.040;2022-12-10T08:03:49;-1.80;99.90
12130;DHT22;6128;59.340;18.040;2022-12-10T08:06:18;-1.80;99.90
12130;DHT22;6128;59.340;18.040;2022-12-10T08:08:46;-1.80;99.90
12130;DHT22;6128;59.340;18.040;2022-12-10T08:11:16;-1.80;99.90
12130;DHT22;6128;59.340;18.040;2022-12-10T08:13:45;-1.70;99.90
12130;DHT22;6128;59.340;18.040;2022-12-10T08:16:14;-1.70;99.90
12130;DHT22;6128;59.340;18.040;2022-12-10T08:18:42;-1.70;99.90
12130;DHT22;6128;59.340;18.040;2022-12-10T08:21:11;-1.70;99.90
12130;DHT22;6128;59.340;18.040;2022-12-10T08:23:39;-1.60;99.90
12130;DHT22;6128;59.340;18.040;2022-12-10T08:26:09;-1.60;99.90
12130;DHT22;6128;59.340;18.040;2022-12-10T08:28:36;-1.50;99.90
12130;DHT22;6128;59.340;18.040;2022-12-10T08:31:07;-1.50;99.90
12130;DHT22;6128;59.340;18.040;2022-12-10T08:33:35;-1.60;99.90
12130;DHT22;6128;59.340;18.040;2022-12-10T08:36:04;-1.50;99.90
12130;DHT22;6128;59.340;18.040;2022-12-10T08:38:31;-1.50;99.90
12130;DHT22;6128;59.340;18.040;2022-12-10T08:40:59;-1.50;99.90
12130;DHT22;6128;59.340;18.040;2022-12-10T08:43:31;-1.50;99.90
12130;DHT22;6128;59.340;18.040;2022-12-10T08:45:59;-1.50;99.90
12130;DHT22;6128;59.340;18.040;2022-12-10T08:48:27;-1.50;99.90
12130;DHT22;6128;59.340;18.040;2022-12-10T08:50:55;-1.60;99.90
12130;DHT22;6128;59.340;18.040;2022-12-10T08:53:22;-1.50;99.90
12130;DHT22;6128;59.340;18.040;2022-12-10T08:55:50;-1.60;99.90
12130;DHT22;6128;59.340;18.040;2022-12-10T08:58:17;-1.50;99.90
12130;DHT22;6128;59.340;18.040;2022-12-10T09:00:44;-1.50;99.90
12130;DHT22;6128;59.340;18.040;2022-12-10T09:03:12;-1.50;99.90
12130;DHT22;6128;59.340;18.040;2022-12-10T09:05:41;-1.50;99.90
12130;DHT22;6128;59.340;18.040;2022-12-10T09:08:08;-1.50;99.90
12130;DHT22;6128;59.340;18.040;2022-12-10T09:10:35;-1.40;99.90
12130;DHT22;6128;59.340;18.040;2022-12-10T09:13:03;-1.40;99.90
12130;DHT22;6128;59.340;18.040;2022-12-10T09:15:30;-1.40;99.90
12130;DHT22;6128;59.340;18.040;2022-12-10T09:17:57;-1.40;99.90
12130;DHT22;6128;59.340;18.040;2022-12-10T09:20:25;-1.40;99.90
12130;DHT22;6128;59.340;18.040;2022-12-10T09:22:53;-1.40;99.90
12130;DHT22;6128;59.340;18.040;2022-12-10T09:25:21;-1.40;99.90
12130;DHT22;6128;59.340;18.040;2022-12-10T09:27:49;-1.40;99.90
12130;DHT22;6128;59.340;18.040;2022-12-10T09:30:16;-1.30;99.90
12130;DHT22;6128;59.340;18.040;2022-12-10T09:32:44;-1.30;99.90
12130;DHT22;6128;59.340;18.040;2022-12-10T09:35:11;-1.40;99.90
12130;DHT22;6128;59.340;18.040;2022-12-10T09:37:39;-1.30;99.90
12130;DHT22;6128;59.340;18.040;2022-12-10T09:40:13;-1.30;99.90
12130;DHT22;6128;59.340;18.040;2022-12-10T09:42:48;-1.30;99.90
12130;DHT22;6128;59.340;18.040;2022-12-10T09:45:26;-1.30;99.90
12130;DHT22;6128;59.340;18.040;2022-12-10T09:48:01;-1.30;99.90
12130;DHT22;6128;59.340;18.040;2022-12-10T09:50:35;-1.30;99.90
12130;DHT22;6128;59.340;18.040;2022-12-10T09:53:12;-1.30;99.90
12130;DHT22;6128;59.340;18.040;2022-12-10T09:55:45;-1.30;99.90
12130;DHT22;6128;59.340;18.040;2022-12-10T09:58:17;-1.20;99.90
12130;DHT22;6128;59.340;18.040;2022-12-10T10:00:47;-1.20;99.90
12130;DHT22;6128;59.340;18.040;2022-12-10T10:03:15;-1.20;99.90
12130;DHT22;6128;59.340;18.040;2022-12-10T10:05:46;-1.20;99.90
12130;DHT22;6128;59.340;18.040;2022-12-10T10:08:28;-1.20;99.90
12130;DHT22;6128;59.340;18.040;2022-12-10T10:11:01;-1.20;99.90
12130;DHT22;6128;59.340;18.040;2022-12-10T10:13:34;-1.20;99.90
12130;DHT22;6128;59.340;18.040;2022-12-10T10:16:14;-1.20;99.90
12130;DHT22;6128;59.340;18.040;2022-12-10T10:18:45;-1.20;99.90
12130;DHT22;6128;59.340;18.040;2022-12-10T10:21:19;-1.20;99.90
12130;DHT22;6128;59.340;18.040;2022-12-10T10:23:47;-1.20;99.90
12130;DHT22;6128;59.340;18.040;2022-12-10T10:26:17;-1.20;99.90
12130;DHT22;6128;59.340;18.040;2022-12-10T10:28:44;-1.20;99.90
12130;DHT22;6128;59.340;18.040;2022-12-10T10:31:19;-1.20;99.90
12130;DHT22;6128;59.340;18.040;2022-12-10T10:33:51;-1.20;99.90
12130;DHT22;6128;59.340;18.040;2022-12-10T10:36:27;-1.10;99.90
12130;DHT22;6128;59.340;18.040;2022-12-10T10:38:55;-1.10;99.90
12130;DHT22;6128;59.340;18.040;2022-12-10T10:41:25;-1.10;99.90
12130;DHT22;6128;59.340;18.040;2022-12-10T10:43:59;-1.00;99.90
12130;DHT22;6128;59.340;18.040;2022-12-10T10:46:29;-1.00;99.90
12130;DHT22;6128;59.340;18.040;2022-12-10T10:49:14;-1.00;99.90
12130;DHT22;6128;59.340;18.040;2022-12-10T10:51:44;-1.00;99.90
12130;DHT22;6128;59.340;18.040;2022-12-10T10:54:12;-1.00;99.90
12130;DHT22;6128;59.340;18.040;2022-12-10T10:57:01;-0.90;99.90
12130;DHT22;6128;59.340;18.040;2022-12-10T10:59:31;-0.90;99.90
12130;DHT22;6128;59.340;18.040;2022-12-10T11:02:02;-0.90;99.90
12130;DHT22;6128;59.340;18.040;2022-12-10T11:04:36;-0.90;99.90
12130;DHT22;6128;59.340;18.040;2022-12-10T11:07:05;-1.00;99.90
12130;DHT22;6128;59.340;18.040;2022-12-10T11:09:41;-1.00;99.90
12130;DHT22;6128;59.340;18.040;2022-12-10T11:12:28;-1.00;99.90
12130;DHT22;6128;59.340;18.040;2022-12-10T11:14:55;-0.90;99.90
12130;DHT22;6128;59.340;18.040;2022-12-10T11:17:24;-0.90;99.90
12130;DHT22;6128;59.340;18.040;2022-12-10T11:19:58;-0.90;99.90
12130;DHT22;6128;59.340;18.040;2022-12-10T11:22:28;-0.90;99.90
12130;DHT22;6128;59.340;18.040;2022-12-10T11:24:55;-1.00;99.90
12130;DHT22;6128;59.340;18.040;2022-12-10T11:27:45;-1.00;99.90
12130;DHT22;6128;59.340;18.040;2022-12-10T11:30:16;-1.00;99.90
12130;DHT22;6128;59.340;18.040;2022-12-10T11:33:09;-1.00;99.90
12130;DHT22;6128;59.340;18.040;2022-12-10T11:35:49;-1.10;99.90
12130;DHT22;6128;59.340;18.040;2022-12-10T11:38:24;-1.20;99.90
12130;DHT22;6128;59.340;18.040;2022-12-10T11:41:03;-1.20;99.90
12130;DHT22;6128;59.340;18.040;2022-12-10T11:43:56;-1.20;99.90
12130;DHT22;6128;59.340;18.040;2022-12-10T11:46:42;-1.20;99.90
12130;DHT22;6128;59.340;18.040;2022-12-10T11:49:23;-1.10;99.90
12130;DHT22;6128;59.340;18.040;2022-12-10T11:51:54;-1.10;99.90
12130;DHT22;6128;59.340;18.040;2022-12-10T11:54:41;-1.10;99.90
12130;DHT22;6128;59.340;18.040;2022-12-10T11:57:19;-1.00;99.90
12130;DHT22;6128;59.340;18.040;2022-12-10T11:59:54;-1.00;99.90
12130;DHT22;6128;59.340;18.040;2022-12-10T12:02:39;-1.00;99.90
12130;DHT22;6128;59.340;18.040;2022-12-10T12:05:21;-1.00;99.90
12130;DHT22;6128;59.340;18.040;2022-12-10T12:07:57;-0.90;99.90
12130;DHT22;6128;59.340;18.040;2022-12-10T12:10:43;-0.90;99.90
12130;DHT22;6128;59.340;18.040;2022-12-10T12:13:17;-0.90;99.90
12130;DHT22;6128;59.340;18.040;2022-12-10T12:15:50;-0.90;99.90
12130;DHT22;6128;59.340;18.040;2022-12-10T12:18:21;-0.90;99.90
12130;DHT22;6128;59.340;18.040;2022-12-10T12:20:53;-0.80;99.90
12130;DHT22;6128;59.340;18.040;2022-12-10T12:23:25;-0.80;99.90
12130;DHT22;6128;59.340;18.040;2022-12-10T12:25:58;-0.80;99.90
12130;DHT22;6128;59.340;18.040;2022-12-10T12:28:32;-0.80;99.90
12130;DHT22;6128;59.340;18.040;2022-12-10T12:31:07;-0.80;99.90
12130;DHT22;6128;59.340;18.040;2022-12-10T12:33:43;-0.90;99.90
12130;DHT22;6128;59.340;18.040;2022-12-10T12:36:16;-0.80;99.90
12130;DHT22;6128;59.340;18.040;2022-12-10T12:38:51;-0.80;99.90
12130;DHT22;6128;59.340;18.040;2022-12-10T12:41:29;-0.80;99.90
12130;DHT22;6128;59.340;18.040;2022-12-10T12:44:02;-0.80;99.90
12130;DHT22;6128;59.340;18.040;2022-12-10T12:46:38;-0.80;99.90
12130;DHT22;6128;59.340;18.040;2022-12-10T12:49:12;-0.70;99.90
12130;DHT22;6128;59.340;18.040;2022-12-10T12:51:45;-0.70;99.90
12130;DHT22;6128;59.340;18.040;2022-12-10T12:54:14;-0.70;99.90
12130;DHT22;6128;59.340;18.040;2022-12-10T12:56:57;-0.70;99.90
12130;DHT22;6128;59.340;18.040;2022-12-10T12:59:38;-0.70;99.90
12130;DHT22;6128;59.340;18.040;2022-12-10T13:02:19;-0.80;99.90
12130;DHT22;6128;59.340;18.040;2022-12-10T13:04:48;-0.80;99.90
12130;DHT22;6128;59.340;18.040;2022-12-10T13:07:31;-0.80;99.90
12130;DHT22;6128;59.340;18.040;2022-12-10T13:13:15;-0.80;99.90
12130;DHT22;6128;59.340;18.040;2022-12-10T13:15:43;-0.80;99.90
12130;DHT22;6128;59.340;18.040;2022-12-10T13:18:38;-0.90;99.90
12130;DHT22;6128;59.340;18.040;2022-12-10T13:21:26;-0.90;99.90
12130;DHT22;6128;59.340;18.040;2022-12-10T13:23:54;-1.00;99.90
12130;DHT22;6128;59.340;18.040;2022-12-10T13:26:31;-1.00;99.90
12130;DHT22;6128;59.340;18.040;2022-12-10T13:29:12;-1.00;99.90
12130;DHT22;6128;59.340;18.040;2022-12-10T13:31:40;-1.00;99.90
12130;DHT22;6128;59.340;18.040;2022-12-10T13:34:30;-1.00;99.90
12130;DHT22;6128;59.340;18.040;2022-12-10T13:37:18;-1.00;99.90
12130;DHT22;6128;59.340;18.040;2022-12-10T13:39:59;-1.00;99.90
12130;DHT22;6128;59.340;18.040;2022-12-10T13:42:30;-1.10;99.90
12130;DHT22;6128;59.340;18.040;2022-12-10T13:45:31;-1.10;99.90
12130;DHT22;6128;59.340;18.040;2022-12-10T13:48:26;-1.10;99.90
12130;DHT22;6128;59.340;18.040;2022-12-10T13:51:12;-1.10;99.90
12130;DHT22;6128;59.340;18.040;2022-12-10T13:53:49;-1.10;99.90
12130;DHT22;6128;59.340;18.040;2022-12-10T13:56:24;-1.20;99.90
12130;DHT22;6128;59.340;18.040;2022-12-10T13:59:05;-1.20;99.90
12130;DHT22;6128;59.340;18.040;2022-12-10T14:01:41;-1.20;99.90
12130;DHT22;6128;59.340;18.040;2022-12-10T14:04:25;-1.20;99.90
12130;DHT22;6128;59.340;18.040;2022-12-10T14:06:58;-1.20;99.90
12130;DHT22;6128;59.340;18.040;2022-12-10T14:09:28;-1.20;99.90
12130;DHT22;6128;59.340;18.040;2022-12-10T14:12:01;-1.20;99.90
12130;DHT22;6128;59.340;18.040;2022-12-10T14:14:31;-1.20;99.90
12130;DHT22;6128;59.340;18.040;2022-12-10T14:17:00;-1.20;99.90
12130;DHT22;6128;59.340;18.040;2022-12-10T14:19:28;-1.20;99.90
12130;DHT22;6128;59.340;18.040;2022-12-10T14:21:58;-1.20;99.90
12130;DHT22;6128;59.340;18.040;2022-12-10T14:24:27;-1.20;99.90
12130;DHT22;6128;59.340;18.040;2022-12-10T14:27:00;-1.20;99.90
12130;DHT22;6128;59.340;18.040;2022-12-10T14:29:28;-1.20;99.90
12130;DHT22;6128;59.340;18.040;2022-12-10T14:31:55;-1.30;99.90
12130;DHT22;6128;59.340;18.040;2022-12-10T14:34:25;-1.30;99.90
12130;DHT22;6128;59.340;18.040;2022-12-10T14:36:55;-1.30;99.90
12130;DHT22;6128;59.340;18.040;2022-12-10T14:39:28;-1.30;99.90
12130;DHT22;6128;59.340;18.040;2022-12-10T14:41:57;-1.30;99.90
12130;DHT22;6128;59.340;18.040;2022-12-10T14:44:26;-1.30;99.90
12130;DHT22;6128;59.340;18.040;2022-12-10T14:47:04;-1.30;99.90
12130;DHT22;6128;59.340;18.040;2022-12-10T14:49:37;-1.40;99.90
12130;DHT22;6128;59.340;18.040;2022-12-10T14:52:13;-1.40;99.90
12130;DHT22;6128;59.340;18.040;2022-12-10T14:54:43;-1.40;99.90
12130;DHT22;6128;59.340;18.040;2022-12-10T14:57:17;-1.40;99.90
12130;DHT22;6128;59.340;18.040;2022-12-10T14:59:49;-1.40;99.90
12130;DHT22;6128;59.340;18.040;2022-12-10T15:02:22;-1.40;99.90
12130;DHT22;6128;59.340;18.040;2022-12-10T15:04:51;-1.40;99.90
12130;DHT22;6128;59.340;18.040;2022-12-10T15:07:24;-1.50;99.90
12130;DHT22;6128;59.340;18.040;2022-12-10T15:09:57;-1.50;99.90
12130;DHT22;6128;59.340;18.040;2022-12-10T15:12:37;-1.50;99.90
12130;DHT22;6128;59.340;18.040;2022-12-10T15:15:14;-1.50;99.90
12130;DHT22;6128;59.340;18.040;2022-12-10T15:17:54;-1.60;99.90
12130;DHT22;6128;59.340;18.040;2022-12-10T15:20:30;-1.50;99.90
12130;DHT22;6128;59.340;18.040;2022-12-10T15:23:22;-1.50;99.90
12130;DHT22;6128;59.340;18.040;2022-12-10T15:25:58;-1.50;99.90
12130;DHT22;6128;59.340;18.040;2022-12-10T15:28:34;-1.50;99.90
12130;DHT22;6128;59.340;18.040;2022-12-10T15:31:11;-1.50;99.90
12130;DHT22;6128;59.340;18.040;2022-12-10T15:33:42;-1.50;99.90
12130;DHT22;6128;59.340;18.040;2022-12-10T15:36:25;-1.50;99.90
12130;DHT22;6128;59.340;18.040;2022-12-10T15:38:52;-1.50;99.90
12130;DHT22;6128;59.340;18.040;2022-12-10T15:41:36;-1.60;99.90
12130;DHT22;6128;59.340;18.040;2022-12-10T15:44:06;-1.60;99.90
12130;DHT22;6128;59.340;18.040;2022-12-10T15:46:47;-1.60;99.90
12130;DHT22;6128;59.340;18.040;2022-12-10T15:49:15;-1.60;99.90
12130;DHT22;6128;59.340;18.040;2022-12-10T15:51:43;-1.60;99.90
12130;DHT22;6128;59.340;18.040;2022-12-10T15:54:20;-1.70;99.90
12130;DHT22;6128;59.340;18.040;2022-12-10T15:56:49;-1.60;99.90
12130;DHT22;6128;59.340;18.040;2022-12-10T15:59:16;-1.70;99.90
12130;DHT22;6128;59.340;18.040;2022-12-10T16:01:44;-1.70;99.90